sensor_id;sensor_type;location;lat;lon;timestamp;P1;durP1;ratioP1;P2;durP2;ratioP2
11425;SDS011;5769;47.998;7.788;2023-08-06T00:00:37;0.82;;;0.50;;
11425;SDS011;5769;47.998;7.788;2023-08-06T00:03:05;1.10;;;0.60;;
11425;SDS011;5769;47.998;7.788;2023-08-06T00:05:32;1.92;;;0.60;;
11425;SDS011;5769;47.998;7.788;2023-08-06T00:07:59;2.03;;;0.60;;
11425;SDS011;5769;47.998;7.788;2023-08-06T00:10:27;2.00;;;0.63;;
11425;SDS011;5769;47.998;7.788;2023-08-06T00:12:54;0.65;;;0.50;;
11425;SDS011;5769;47.998;7.788;2023-08-06T00:15:20;1.95;;;0.57;;
11425;SDS011;5769;47.998;7.788;2023-08-06T00:17:48;2.20;;;0.55;;
11425;SDS011;5769;47.998;7.788;2023-08-06T00:20:16;2.22;;;0.70;;
11425;SDS011;5769;47.998;7.788;2023-08-06T00:22:42;2.70;;;0.63;;
11425;SDS011;5769;47.998;7.788;2023-08-06T00:25:09;4.05;;;0.60;;
11425;SDS011;5769;47.998;7.788;2023-08-06T00:27:36;1.13;;;0.60;;
11425;SDS011;5769;47.998;7.788;2023-08-06T00:30:03;1.73;;;0.50;;
11425;SDS011;5769;47.998;7.788;2023-08-06T00:32:30;0.68;;;0.50;;
11425;SDS011;5769;47.998;7.788;2023-08-06T00:34:57;1.30;;;0.70;;
11425;SDS011;5769;47.998;7.788;2023-08-06T00:37:28;0.68;;;0.50;;
11425;SDS011;5769;47.998;7.788;2023-08-06T00:39:55;0.90;;;0.50;;
11425;SDS011;5769;47.998;7.788;2023-08-06T00:42:21;1.05;;;0.60;;
11425;SDS011;5769;47.998;7.788;2023-08-06T00:44:48;2.47;;;0.70;;
11425;SDS011;5769;47.998;7.788;2023-08-06T00:47:15;0.98;;;0.55;;
11425;SDS011;5769;47.998;7.788;2023-08-06T00:49:42;1.73;;;0.60;;
11425;SDS011;5769;47.998;7.788;2023-08-06T00:52:08;1.05;;;0.52;;
11425;SDS011;5769;47.998;7.788;2023-08-06T00:54:37;1.67;;;0.60;;
11425;SDS011;5769;47.998;7.788;2023-08-06T00:57:04;0.90;;;0.60;;
11425;SDS011;5769;47.998;7.788;2023-08-06T00:59:33;1.17;;;0.60;;
11425;SDS011;5769;47.998;7.788;2023-08-06T01:02:00;1.10;;;0.50;;
11425;SDS011;5769;47.998;7.788;2023-08-06T01:04:27;1.15;;;0.60;;
11425;SDS011;5769;47.998;7.788;2023-08-06T01:06:56;0.57;;;0.50;;
11425;SDS011;5769;47.998;7.788;2023-08-06T01:09:31;0.63;;;0.50;;
11425;SDS011;5769;47.998;7.788;2023-08-06T01:12:09;1.10;;;0.60;;
11425;SDS011;5769;47.998;7.788;2023-08-06T01:14:45;1.20;;;0.60;;
11425;SDS011;5769;47.998;7.788;2023-08-06T01:17:18;1.23;;;0.55;;
11425;SDS011;5769;47.998;7.788;2023-08-06T01:19:46;0.65;;;0.50;;
11425;SDS011;5769;47.998;7.788;2023-08-06T01:22:14;1.20;;;0.50;;
11425;SDS011;5769;47.998;7.788;2023-08-06T01:24:41;1.35;;;0.60;;
11425;SDS011;5769;47.998;7.788;2023-08-06T01:27:14;1.08;;;0.57;;
11425;SDS011;5769;47.998;7.788;2023-08-06T01:29:52;1.75;;;0.50;;
11425;SDS011;5769;47.998;7.788;2023-08-06T01:32:29;0.60;;;0.50;;
11425;SDS011;5769;47.998;7.788;2023-08-06T01:35:00;0.80;;;0.57;;
11425;SDS011;5769;47.998;7.788;2023-08-06T01:37:29;1.23;;;0.50;;
11425;SDS011;5769;47.998;7.788;2023-08-06T01:39:57;1.10;;;0.50;;
11425;SDS011;5769;47.998;7.788;2023-08-06T01:42:23;1.13;;;0.55;;
11425;SDS011;5769;47.998;7.788;2023-08-06T01:44:50;0.90;;;0.60;;
11425;SDS011;5769;47.998;7.788;2023-08-06T01:47:17;0.63;;;0.43;;
11425;SDS011;5769;47.998;7.788;2023-08-06T01:49:44;1.13;;;0.52;;
11425;SDS011;5769;47.998;7.788;2023-08-06T01:52:13;1.23;;;0.68;;
11425;SDS011;5769;47.998;7.788;2023-08-06T01:54:42;0.70;;;0.50;;
11425;SDS011;5769;47.998;7.788;2023-08-06T01:57:09;0.90;;;0.50;;
11425;SDS011;5769;47.998;7.788;2023-08-06T01:59:35;1.27;;;0.60;;
11425;SDS011;5769;47.998;7.788;2023-08-06T02:02:02;2.03;;;0.50;;
11425;SDS011;5769;47.998;7.788;2023-08-06T02:04:29;1.63;;;0.50;;
11425;SDS011;5769;47.998;7.788;2023-08-06T02:06:56;0.90;;;0.50;;
11425;SDS011;5769;47.998;7.788;2023-08-06T02:09:23;1.02;;;0.47;;
11425;SDS011;5769;47.998;7.788;2023-08-06T02:11:51;2.55;;;0.60;;
11425;SDS011;5769;47.998;7.788;2023-08-06T02:14:17;1.50;;;0.50;;
11425;SDS011;5769;47.998;7.788;2023-08-06T02:16:44;2.35;;;0.80;;
11425;SDS011;5769;47.998;7.788;2023-08-06T02:19:11;1.38;;;0.50;;
11425;SDS011;5769;47.998;7.788;2023-08-06T02:21:38;0.77;;;0.50;;
11425;SDS011;5769;47.998;7.788;2023-08-06T02:24:04;1.13;;;0.40;;
11425;SDS011;5769;47.998;7.788;2023-08-06T02:26:31;1.90;;;0.55;;
11425;SDS011;5769;47.998;7.788;2023-08-06T02:28:59;0.93;;;0.40;;
11425;SDS011;5769;47.998;7.788;2023-08-06T02:31:26;1.92;;;0.60;;
11425;SDS011;5769;47.998;7.788;2023-08-06T02:33:52;1.65;;;0.70;;
11425;SDS011;5769;47.998;7.788;2023-08-06T02:36:20;1.42;;;0.60;;
11425;SDS011;5769;47.998;7.788;2023-08-06T02:38:46;1.05;;;0.60;;
11425;SDS011;5769;47.998;7.788;2023-08-06T02:41:13;0.55;;;0.43;;
11425;SDS011;5769;47.998;7.788;2023-08-06T02:43:40;1.75;;;0.40;;
11425;SDS011;5769;47.998;7.788;2023-08-06T02:46:08;1.40;;;0.32;;
11425;SDS011;5769;47.998;7.788;2023-08-06T02:48:34;1.17;;;0.50;;
11425;SDS011;5769;47.998;7.788;2023-08-06T02:51:01;1.65;;;0.40;;
11425;SDS011;5769;47.998;7.788;2023-08-06T02:53:28;1.73;;;0.60;;
11425;SDS011;5769;47.998;7.788;2023-08-06T02:55:54;1.67;;;0.50;;
11425;SDS011;5769;47.998;7.788;2023-08-06T02:58:21;0.90;;;0.57;;
11425;SDS011;5769;47.998;7.788;2023-08-06T03:00:58;2.15;;;0.60;;
11425;SDS011;5769;47.998;7.788;2023-08-06T03:03:27;1.92;;;0.47;;
11425;SDS011;5769;47.998;7.788;2023-08-06T03:05:54;0.75;;;0.40;;
11425;SDS011;5769;47.998;7.788;2023-08-06T03:08:20;2.42;;;0.50;;
11425;SDS011;5769;47.998;7.788;2023-08-06T03:10:47;0.80;;;0.40;;
11425;SDS011;5769;47.998;7.788;2023-08-06T03:13:14;0.60;;;0.40;;
11425;SDS011;5769;47.998;7.788;2023-08-06T03:15:41;1.15;;;0.50;;
11425;SDS011;5769;47.998;7.788;2023-08-06T03:18:08;1.48;;;0.68;;
11425;SDS011;5769;47.998;7.788;2023-08-06T03:20:36;1.60;;;0.50;;
11425;SDS011;5769;47.998;7.788;2023-08-06T03:23:02;0.45;;;0.30;;
11425;SDS011;5769;47.998;7.788;2023-08-06T03:25:36;1.40;;;0.50;;
11425;SDS011;5769;47.998;7.788;2023-08-06T03:28:03;0.50;;;0.40;;
11425;SDS011;5769;47.998;7.788;2023-08-06T03:30:30;1.73;;;0.77;;
11425;SDS011;5769;47.998;7.788;2023-08-06T03:32:57;0.77;;;0.45;;
11425;SDS011;5769;47.998;7.788;2023-08-06T03:35:24;1.08;;;0.40;;
11425;SDS011;5769;47.998;7.788;2023-08-06T03:37:52;0.80;;;0.50;;
11425;SDS011;5769;47.998;7.788;2023-08-06T03:40:19;1.45;;;0.40;;
11425;SDS011;5769;47.998;7.788;2023-08-06T03:42:45;1.02;;;0.28;;
11425;SDS011;5769;47.998;7.788;2023-08-06T03:45:12;0.40;;;0.30;;
11425;SDS011;5769;47.998;7.788;2023-08-06T03:47:39;0.55;;;0.30;;
11425;SDS011;5769;47.998;7.788;2023-08-06T03:50:05;0.88;;;0.28;;
11425;SDS011;5769;47.998;7.788;2023-08-06T03:52:33;1.08;;;0.40;;
11425;SDS011;5769;47.998;7.788;2023-08-06T03:55:03;0.45;;;0.38;;
11425;SDS011;5769;47.998;7.788;2023-08-06T03:57:30;0.98;;;0.30;;
11425;SDS011;5769;47.998;7.788;2023-08-06T03:59:57;0.50;;;0.30;;
11425;SDS011;5769;47.998;7.788;2023-08-06T04:02:23;0.85;;;0.30;;
11425;SDS011;5769;47.998;7.788;2023-08-06T04:04:53;0.50;;;0.20;;
11425;SDS011;5769;47.998;7.788;2023-08-06T04:07:20;0.65;;;0.30;;
11425;SDS011;5769;47.998;7.788;2023-08-06T04:09:53;1.42;;;0.30;;
11425;SDS011;5769;47.998;7.788;2023-08-06T04:12:22;0.65;;;0.30;;
11425;SDS011;5769;47.998;7.788;2023-08-06T04:14:49;0.30;;;0.20;;
11425;SDS011;5769;47.998;7.788;2023-08-06T04:17:17;0.30;;;0.30;;
11425;SDS011;5769;47.998;7.788;2023-08-06T04:19:45;3.05;;;0.40;;
11425;SDS011;5769;47.998;7.788;2023-08-06T04:22:12;0.75;;;0.17;;
11425;SDS011;5769;47.998;7.788;2023-08-06T04:24:39;0.93;;;0.20;;
11425;SDS011;5769;47.998;7.788;2023-08-06T04:27:06;0.75;;;0.20;;
11425;SDS011;5769;47.998;7.788;2023-08-06T04:29:34;1.83;;;0.30;;
11425;SDS011;5769;47.998;7.788;2023-08-06T04:32:01;0.30;;;0.10;;
11425;SDS011;5769;47.998;7.788;2023-08-06T04:34:27;0.35;;;0.20;;
11425;SDS011;5769;47.998;7.788;2023-08-06T04:36:54;2.72;;;0.35;;
11425;SDS011;5769;47.998;7.788;2023-08-06T04:39:21;0.75;;;0.30;;
11425;SDS011;5769;47.998;7.788;2023-08-06T04:41:47;0.10;;;0.10;;
11425;SDS011;5769;47.998;7.788;2023-08-06T04:44:14;0.60;;;0.20;;
11425;SDS011;5769;47.998;7.788;2023-08-06T04:46:42;2.40;;;0.20;;
11425;SDS011;5769;47.998;7.788;2023-08-06T04:49:09;2.42;;;0.40;;
11425;SDS011;5769;47.998;7.788;2023-08-06T04:51:36;0.50;;;0.30;;
11425;SDS011;5769;47.998;7.788;2023-08-06T04:54:02;1.23;;;0.40;;
11425;SDS011;5769;47.998;7.788;2023-08-06T04:56:29;0.30;;;0.10;;
11425;SDS011;5769;47.998;7.788;2023-08-06T04:58:57;2.42;;;0.50;;
11425;SDS011;5769;47.998;7.788;2023-08-06T05:01:24;1.77;;;0.28;;
11425;SDS011;5769;47.998;7.788;2023-08-06T05:03:52;1.10;;;0.30;;
11425;SDS011;5769;47.998;7.788;2023-08-06T05:06:19;1.88;;;0.20;;
11425;SDS011;5769;47.998;7.788;2023-08-06T05:08:45;1.55;;;0.30;;
11425;SDS011;5769;47.998;7.788;2023-08-06T05:11:12;0.47;;;0.20;;
11425;SDS011;5769;47.998;7.788;2023-08-06T05:13:39;1.30;;;0.30;;
11425;SDS011;5769;47.998;7.788;2023-08-06T05:16:05;0.82;;;0.20;;
11425;SDS011;5769;47.998;7.788;2023-08-06T05:18:32;1.38;;;0.30;;
11425;SDS011;5769;47.998;7.788;2023-08-06T05:21:03;0.60;;;0.30;;
11425;SDS011;5769;47.998;7.788;2023-08-06T05:23:30;1.38;;;0.40;;
11425;SDS011;5769;47.998;7.788;2023-08-06T05:25:57;0.85;;;0.40;;
11425;SDS011;5769;47.998;7.788;2023-08-06T05:28:23;2.03;;;0.52;;
11425;SDS011;5769;47.998;7.788;2023-08-06T05:30:50;1.95;;;0.40;;
11425;SDS011;5769;47.998;7.788;2023-08-06T05:33:17;1.02;;;0.28;;
11425;SDS011;5769;47.998;7.788;2023-08-06T05:35:43;1.67;;;0.20;;
11425;SDS011;5769;47.998;7.788;2023-08-06T05:38:11;0.85;;;0.20;;
11425;SDS011;5769;47.998;7.788;2023-08-06T05:40:38;1.95;;;0.30;;
11425;SDS011;5769;47.998;7.788;2023-08-06T05:43:05;0.95;;;0.40;;
11425;SDS011;5769;47.998;7.788;2023-08-06T05:45:31;1.30;;;0.30;;
11425;SDS011;5769;47.998;7.788;2023-08-06T05:47:58;1.70;;;0.30;;
11425;SDS011;5769;47.998;7.788;2023-08-06T05:50:25;3.22;;;0.40;;
11425;SDS011;5769;47.998;7.788;2023-08-06T05:52:51;0.95;;;0.30;;
11425;SDS011;5769;47.998;7.788;2023-08-06T05:55:20;4.10;;;0.52;;
11425;SDS011;5769;47.998;7.788;2023-08-06T05:57:46;1.05;;;0.30;;
11425;SDS011;5769;47.998;7.788;2023-08-06T06:00:13;0.40;;;0.20;;
11425;SDS011;5769;47.998;7.788;2023-08-06T06:02:40;1.48;;;0.38;;
11425;SDS011;5769;47.998;7.788;2023-08-06T06:05:07;2.28;;;0.40;;
11425;SDS011;5769;47.998;7.788;2023-08-06T06:07:34;1.98;;;0.40;;
11425;SDS011;5769;47.998;7.788;2023-08-06T06:10:01;1.65;;;0.40;;
11425;SDS011;5769;47.998;7.788;2023-08-06T06:12:29;2.15;;;0.30;;
11425;SDS011;5769;47.998;7.788;2023-08-06T06:14:56;1.08;;;0.20;;
11425;SDS011;5769;47.998;7.788;2023-08-06T06:17:22;1.05;;;0.38;;
11425;SDS011;5769;47.998;7.788;2023-08-06T06:19:49;2.35;;;0.38;;
11425;SDS011;5769;47.998;7.788;2023-08-06T06:22:15;1.25;;;0.30;;
11425;SDS011;5769;47.998;7.788;2023-08-06T06:24:42;2.13;;;0.30;;
11425;SDS011;5769;47.998;7.788;2023-08-06T06:27:09;0.77;;;0.35;;
11425;SDS011;5769;47.998;7.788;2023-08-06T06:29:38;1.25;;;0.40;;
11425;SDS011;5769;47.998;7.788;2023-08-06T06:32:05;1.15;;;0.38;;
11425;SDS011;5769;47.998;7.788;2023-08-06T06:34:32;2.13;;;0.35;;
11425;SDS011;5769;47.998;7.788;2023-08-06T06:36:59;5.97;;;0.60;;
11425;SDS011;5769;47.998;7.788;2023-08-06T06:39:26;2.28;;;0.40;;
11425;SDS011;5769;47.998;7.788;2023-08-06T06:41:52;1.65;;;0.30;;
11425;SDS011;5769;47.998;7.788;2023-08-06T06:44:19;1.02;;;0.32;;
11425;SDS011;5769;47.998;7.788;2023-08-06T06:46:47;2.17;;;0.30;;
11425;SDS011;5769;47.998;7.788;2023-08-06T06:49:14;1.67;;;0.30;;
11425;SDS011;5769;47.998;7.788;2023-08-06T06:51:40;1.02;;;0.22;;
11425;SDS011;5769;47.998;7.788;2023-08-06T06:54:07;2.22;;;0.32;;
11425;SDS011;5769;47.998;7.788;2023-08-06T06:56:34;1.25;;;0.25;;
11425;SDS011;5769;47.998;7.788;2023-08-06T06:59:00;1.30;;;0.30;;
11425;SDS011;5769;47.998;7.788;2023-08-06T07:01:27;1.33;;;0.32;;
11425;SDS011;5769;47.998;7.788;2023-08-06T07:03:55;2.30;;;0.40;;
11425;SDS011;5769;47.998;7.788;2023-08-06T07:06:22;1.23;;;0.30;;
11425;SDS011;5769;47.998;7.788;2023-08-06T07:08:48;1.30;;;0.30;;
11425;SDS011;5769;47.998;7.788;2023-08-06T07:11:15;2.42;;;0.40;;
11425;SDS011;5769;47.998;7.788;2023-08-06T07:13:42;1.55;;;0.40;;
11425;SDS011;5769;47.998;7.788;2023-08-06T07:16:08;2.20;;;0.32;;
11425;SDS011;5769;47.998;7.788;2023-08-06T07:18:35;0.47;;;0.20;;
11425;SDS011;5769;47.998;7.788;2023-08-06T07:21:03;0.50;;;0.20;;
11425;SDS011;5769;47.998;7.788;2023-08-06T07:23:30;1.60;;;0.38;;
11425;SDS011;5769;47.998;7.788;2023-08-06T07:25:56;1.17;;;0.30;;
11425;SDS011;5769;47.998;7.788;2023-08-06T07:28:23;0.55;;;0.25;;
11425;SDS011;5769;47.998;7.788;2023-08-06T07:30:50;0.32;;;0.20;;
11425;SDS011;5769;47.998;7.788;2023-08-06T07:33:16;0.60;;;0.22;;
11425;SDS011;5769;47.998;7.788;2023-08-06T07:35:43;0.63;;;0.25;;
11425;SDS011;5769;47.998;7.788;2023-08-06T07:38:11;1.00;;;0.20;;
11425;SDS011;5769;47.998;7.788;2023-08-06T07:40:38;1.13;;;0.30;;
11425;SDS011;5769;47.998;7.788;2023-08-06T07:43:05;0.68;;;0.20;;
11425;SDS011;5769;47.998;7.788;2023-08-06T07:45:35;0.75;;;0.13;;
11425;SDS011;5769;47.998;7.788;2023-08-06T07:48:02;1.55;;;0.20;;
11425;SDS011;5769;47.998;7.788;2023-08-06T07:50:29;0.43;;;0.10;;
11425;SDS011;5769;47.998;7.788;2023-08-06T07:52:56;0.32;;;0.20;;
11425;SDS011;5769;47.998;7.788;2023-08-06T07:55:24;0.35;;;0.20;;
11425;SDS011;5769;47.998;7.788;2023-08-06T07:57:51;0.63;;;0.20;;
11425;SDS011;5769;47.998;7.788;2023-08-06T08:00:18;1.02;;;0.32;;
11425;SDS011;5769;47.998;7.788;2023-08-06T08:02:45;1.30;;;0.20;;
11425;SDS011;5769;47.998;7.788;2023-08-06T08:05:12;0.90;;;0.25;;
11425;SDS011;5769;47.998;7.788;2023-08-06T08:07:39;0.77;;;0.20;;
11425;SDS011;5769;47.998;7.788;2023-08-06T08:10:06;0.20;;;0.20;;
11425;SDS011;5769;47.998;7.788;2023-08-06T08:12:35;0.30;;;0.10;;
11425;SDS011;5769;47.998;7.788;2023-08-06T08:15:01;2.22;;;0.20;;
11425;SDS011;5769;47.998;7.788;2023-08-06T08:17:28;0.70;;;0.15;;
11425;SDS011;5769;47.998;7.788;2023-08-06T08:19:55;1.92;;;0.20;;
11425;SDS011;5769;47.998;7.788;2023-08-06T08:22:22;0.50;;;0.10;;
11425;SDS011;5769;47.998;7.788;2023-08-06T08:24:48;0.52;;;0.13;;
11425;SDS011;5769;47.998;7.788;2023-08-06T08:27:15;1.20;;;0.25;;
11425;SDS011;5769;47.998;7.788;2023-08-06T08:29:43;1.00;;;0.20;;
11425;SDS011;5769;47.998;7.788;2023-08-06T08:32:10;1.08;;;0.22;;
11425;SDS011;5769;47.998;7.788;2023-08-06T08:34:37;0.30;;;0.10;;
11425;SDS011;5769;47.998;7.788;2023-08-06T08:37:03;0.47;;;0.10;;
11425;SDS011;5769;47.998;7.788;2023-08-06T08:39:31;0.10;;;0.10;;
11425;SDS011;5769;47.998;7.788;2023-08-06T08:41:57;0.30;;;0.20;;
11425;SDS011;5769;47.998;7.788;2023-08-06T08:44:24;0.50;;;0.10;;
11425;SDS011;5769;47.998;7.788;2023-08-06T08:46:55;0.60;;;0.20;;
11425;SDS011;5769;47.998;7.788;2023-08-06T08:49:23;0.55;;;0.13;;
11425;SDS011;5769;47.998;7.788;2023-08-06T08:51:50;1.05;;;0.10;;
11425;SDS011;5769;47.998;7.788;2023-08-06T08:54:19;0.55;;;0.20;;
11425;SDS011;5769;47.998;7.788;2023-08-06T08:56:48;0.15;;;0.10;;
11425;SDS011;5769;47.998;7.788;2023-08-06T08:59:15;0.45;;;0.20;;
11425;SDS011;5769;47.998;7.788;2023-08-06T09:01:42;1.00;;;0.28;;
11425;SDS011;5769;47.998;7.788;2023-08-06T09:04:17;0.88;;;0.13;;
11425;SDS011;5769;47.998;7.788;2023-08-06T09:06:46;0.28;;;0.17;;
11425;SDS011;5769;47.998;7.788;2023-08-06T09:09:15;0.10;;;0.10;;
11425;SDS011;5769;47.998;7.788;2023-08-06T09:11:51;1.08;;;0.25;;
11425;SDS011;5769;47.998;7.788;2023-08-06T09:14:18;1.02;;;0.22;;
11425;SDS011;5769;47.998;7.788;2023-08-06T09:16:45;0.80;;;0.22;;
11425;SDS011;5769;47.998;7.788;2023-08-06T09:19:13;0.98;;;0.22;;
11425;SDS011;5769;47.998;7.788;2023-08-06T09:21:45;1.17;;;0.30;;
11425;SDS011;5769;47.998;7.788;2023-08-06T09:24:14;4.65;;;0.28;;
11425;SDS011;5769;47.998;7.788;2023-08-06T09:26:41;0.63;;;0.20;;
11425;SDS011;5769;47.998;7.788;2023-08-06T09:29:09;1.88;;;0.30;;
11425;SDS011;5769;47.998;7.788;2023-08-06T09:31:40;1.23;;;0.20;;
11425;SDS011;5769;47.998;7.788;2023-08-06T09:34:10;0.38;;;0.20;;
11425;SDS011;5769;47.998;7.788;2023-08-06T09:36:40;1.95;;;0.40;;
11425;SDS011;5769;47.998;7.788;2023-08-06T09:39:13;0.25;;;0.25;;
11425;SDS011;5769;47.998;7.788;2023-08-06T09:41:44;1.75;;;0.20;;
11425;SDS011;5769;47.998;7.788;2023-08-06T09:44:15;1.85;;;0.28;;
11425;SDS011;5769;47.998;7.788;2023-08-06T09:46:46;0.52;;;0.20;;
11425;SDS011;5769;47.998;7.788;2023-08-06T09:49:17;0.30;;;0.20;;
11425;SDS011;5769;47.998;7.788;2023-08-06T09:51:45;1.45;;;0.22;;
11425;SDS011;5769;47.998;7.788;2023-08-06T09:54:17;0.28;;;0.10;;
11425;SDS011;5769;47.998;7.788;2023-08-06T09:56:48;0.10;;;0.10;;
11425;SDS011;5769;47.998;7.788;2023-08-06T09:59:16;0.40;;;0.20;;
11425;SDS011;5769;47.998;7.788;2023-08-06T10:01:45;0.25;;;0.00;;
11425;SDS011;5769;47.998;7.788;2023-08-06T10:04:13;2.80;;;0.25;;
11425;SDS011;5769;47.998;7.788;2023-08-06T10:06:41;0.35;;;0.15;;
11425;SDS011;5769;47.998;7.788;2023-08-06T10:09:09;0.25;;;0.15;;
11425;SDS011;5769;47.998;7.788;2023-08-06T10:11:37;0.30;;;0.20;;
11425;SDS011;5769;47.998;7.788;2023-08-06T10:14:05;0.52;;;0.10;;
11425;SDS011;5769;47.998;7.788;2023-08-06T10:16:36;0.20;;;0.08;;
11425;SDS011;5769;47.998;7.788;2023-08-06T10:19:03;1.20;;;0.10;;
11425;SDS011;5769;47.998;7.788;2023-08-06T10:21:31;1.17;;;0.15;;
11425;SDS011;5769;47.998;7.788;2023-08-06T10:24:01;0.30;;;0.20;;
11425;SDS011;5769;47.998;7.788;2023-08-06T10:26:28;0.60;;;0.10;;
11425;SDS011;5769;47.998;7.788;2023-08-06T10:28:57;0.00;;;0.00;;
11425;SDS011;5769;47.998;7.788;2023-08-06T10:34:24;0.57;;;0.20;;
11425;SDS011;5769;47.998;7.788;2023-08-06T10:36:53;1.63;;;0.20;;
11425;SDS011;5769;47.998;7.788;2023-08-06T10:39:21;1.05;;;0.17;;
11425;SDS011;5769;47.998;7.788;2023-08-06T10:41:47;0.30;;;0.15;;
11425;SDS011;5769;47.998;7.788;2023-08-06T10:44:15;0.10;;;0.10;;
11425;SDS011;5769;47.998;7.788;2023-08-06T10:46:42;0.20;;;0.10;;
11425;SDS011;5769;47.998;7.788;2023-08-06T10:49:15;0.32;;;0.10;;
11425;SDS011;5769;47.998;7.788;2023-08-06T10:51:44;0.10;;;0.10;;
11425;SDS011;5769;47.998;7.788;2023-08-06T10:54:12;0.10;;;0.10;;
11425;SDS011;5769;47.998;7.788;2023-08-06T10:56:39;0.52;;;0.17;;
11425;SDS011;5769;47.998;7.788;2023-08-06T10:59:14;1.23;;;0.28;;
11425;SDS011;5769;47.998;7.788;2023-08-06T11:01:46;0.70;;;0.10;;
11425;SDS011;5769;47.998;7.788;2023-08-06T11:04:13;1.55;;;0.10;;
11425;SDS011;5769;47.998;7.788;2023-08-06T11:06:42;0.15;;;0.15;;
11425;SDS011;5769;47.998;7.788;2023-08-06T11:09:09;0.20;;;0.10;;
11425;SDS011;5769;47.998;7.788;2023-08-06T11:11:43;1.65;;;0.20;;
11425;SDS011;5769;47.998;7.788;2023-08-06T11:14:16;0.10;;;0.00;;
11425;SDS011;5769;47.998;7.788;2023-08-06T11:16:44;0.10;;;0.10;;
11425;SDS011;5769;47.998;7.788;2023-08-06T11:19:11;0.50;;;0.10;;
11425;SDS011;5769;47.998;7.788;2023-08-06T11:21:40;0.10;;;0.10;;
11425;SDS011;5769;47.998;7.788;2023-08-06T11:24:09;0.28;;;0.10;;
11425;SDS011;5769;47.998;7.788;2023-08-06T11:26:36;0.32;;;0.10;;
11425;SDS011;5769;47.998;7.788;2023-08-06T11:29:09;0.10;;;0.00;;
11425;SDS011;5769;47.998;7.788;2023-08-06T11:31:37;0.32;;;0.05;;
11425;SDS011;5769;47.998;7.788;2023-08-06T11:34:04;0.03;;;0.00;;
11425;SDS011;5769;47.998;7.788;2023-08-06T11:36:31;0.13;;;0.00;;
11425;SDS011;5769;47.998;7.788;2023-08-06T11:38:58;0.00;;;0.00;;
11425;SDS011;5769;47.998;7.788;2023-08-06T11:41:25;8.65;;;0.75;;
11425;SDS011;5769;47.998;7.788;2023-08-06T11:43:54;0.00;;;0.00;;
11425;SDS011;5769;47.998;7.788;2023-08-06T11:46:20;0.10;;;0.10;;
11425;SDS011;5769;47.998;7.788;2023-08-06T11:48:52;0.10;;;0.10;;
11425;SDS011;5769;47.998;7.788;2023-08-06T11:51:22;0.80;;;0.13;;
11425;SDS011;5769;47.998;7.788;2023-08-06T11:53:49;2.08;;;0.20;;
11425;SDS011;5769;47.998;7.788;2023-08-06T11:56:16;1.38;;;0.20;;
11425;SDS011;5769;47.998;7.788;2023-08-06T11:58:43;0.40;;;0.10;;
11425;SDS011;5769;47.998;7.788;2023-08-06T12:01:09;0.32;;;0.10;;
11425;SDS011;5769;47.998;7.788;2023-08-06T12:03:38;1.90;;;0.10;;
11425;SDS011;5769;47.998;7.788;2023-08-06T12:06:07;0.28;;;0.10;;
11425;SDS011;5769;47.998;7.788;2023-08-06T12:08:33;1.30;;;0.38;;
11425;SDS011;5769;47.998;7.788;2023-08-06T12:11:00;1.05;;;0.10;;
11425;SDS011;5769;47.998;7.788;2023-08-06T12:13:27;0.10;;;0.10;;
11425;SDS011;5769;47.998;7.788;2023-08-06T12:15:54;0.40;;;0.10;;
11425;SDS011;5769;47.998;7.788;2023-08-06T12:18:22;0.00;;;0.00;;
11425;SDS011;5769;47.998;7.788;2023-08-06T12:20:49;0.40;;;0.20;;
11425;SDS011;5769;47.998;7.788;2023-08-06T12:23:17;0.93;;;0.10;;
11425;SDS011;5769;47.998;7.788;2023-08-06T12:25:44;0.22;;;0.10;;
11425;SDS011;5769;47.998;7.788;2023-08-06T12:28:10;0.45;;;0.17;;
11425;SDS011;5769;47.998;7.788;2023-08-06T12:30:38;0.10;;;0.00;;
11425;SDS011;5769;47.998;7.788;2023-08-06T12:33:06;0.68;;;0.22;;
11425;SDS011;5769;47.998;7.788;2023-08-06T12:35:33;0.30;;;0.10;;
11425;SDS011;5769;47.998;7.788;2023-08-06T12:38:00;0.20;;;0.20;;
11425;SDS011;5769;47.998;7.788;2023-08-06T12:40:28;1.35;;;0.22;;
11425;SDS011;5769;47.998;7.788;2023-08-06T12:42:55;0.77;;;0.17;;
11425;SDS011;5769;47.998;7.788;2023-08-06T12:45:21;0.85;;;0.08;;
11425;SDS011;5769;47.998;7.788;2023-08-06T12:47:48;0.73;;;0.10;;
11425;SDS011;5769;47.998;7.788;2023-08-06T12:50:15;0.17;;;0.10;;
11425;SDS011;5769;47.998;7.788;2023-08-06T12:52:42;1.17;;;0.10;;
11425;SDS011;5769;47.998;7.788;2023-08-06T12:55:08;0.20;;;0.10;;
11425;SDS011;5769;47.998;7.788;2023-08-06T12:57:36;0.10;;;0.10;;
11425;SDS011;5769;47.998;7.788;2023-08-06T13:00:03;0.20;;;0.10;;
11425;SDS011;5769;47.998;7.788;2023-08-06T13:02:31;0.32;;;0.10;;
11425;SDS011;5769;47.998;7.788;2023-08-06T13:04:58;2.00;;;0.20;;
11425;SDS011;5769;47.998;7.788;2023-08-06T13:07:24;2.17;;;0.20;;
11425;SDS011;5769;47.998;7.788;2023-08-06T13:09:51;0.32;;;0.20;;
11425;SDS011;5769;47.998;7.788;2023-08-06T13:12:18;1.00;;;0.20;;
11425;SDS011;5769;47.998;7.788;2023-08-06T13:14:49;1.08;;;0.20;;
11425;SDS011;5769;47.998;7.788;2023-08-06T13:17:17;0.20;;;0.10;;
11425;SDS011;5769;47.998;7.788;2023-08-06T13:19:44;0.05;;;0.00;;
11425;SDS011;5769;47.998;7.788;2023-08-06T13:22:11;0.55;;;0.20;;
11425;SDS011;5769;47.998;7.788;2023-08-06T13:24:37;0.40;;;0.10;;
11425;SDS011;5769;47.998;7.788;2023-08-06T13:27:04;0.30;;;0.20;;
11425;SDS011;5769;47.998;7.788;2023-08-06T13:29:31;0.10;;;0.03;;
11425;SDS011;5769;47.998;7.788;2023-08-06T13:31:59;0.10;;;0.10;;
11425;SDS011;5769;47.998;7.788;2023-08-06T13:34:26;0.30;;;0.10;;
11425;SDS011;5769;47.998;7.788;2023-08-06T13:36:53;0.32;;;0.17;;
11425;SDS011;5769;47.998;7.788;2023-08-06T13:39:19;0.77;;;0.20;;
11425;SDS011;5769;47.998;7.788;2023-08-06T13:41:46;0.88;;;0.10;;
11425;SDS011;5769;47.998;7.788;2023-08-06T13:44:13;0.10;;;0.10;;
11425;SDS011;5769;47.998;7.788;2023-08-06T13:46:40;0.20;;;0.15;;
11425;SDS011;5769;47.998;7.788;2023-08-06T13:49:10;0.20;;;0.08;;
11425;SDS011;5769;47.998;7.788;2023-08-06T13:51:36;0.43;;;0.10;;
11425;SDS011;5769;47.998;7.788;2023-08-06T13:54:05;0.35;;;0.20;;
11425;SDS011;5769;47.998;7.788;2023-08-06T13:56:32;0.80;;;0.30;;
11425;SDS011;5769;47.998;7.788;2023-08-06T13:59:01;0.77;;;0.20;;
11425;SDS011;5769;47.998;7.788;2023-08-06T14:01:29;0.70;;;0.13;;
11425;SDS011;5769;47.998;7.788;2023-08-06T14:03:55;0.10;;;0.10;;
11425;SDS011;5769;47.998;7.788;2023-08-06T14:06:24;0.35;;;0.10;;
11425;SDS011;5769;47.998;7.788;2023-08-06T14:08:50;0.10;;;0.10;;
11425;SDS011;5769;47.998;7.788;2023-08-06T14:11:17;0.60;;;0.10;;
11425;SDS011;5769;47.998;7.788;2023-08-06T14:13:44;1.60;;;0.30;;
11425;SDS011;5769;47.998;7.788;2023-08-06T14:16:11;0.60;;;0.28;;
11425;SDS011;5769;47.998;7.788;2023-08-06T14:18:37;0.65;;;0.20;;
11425;SDS011;5769;47.998;7.788;2023-08-06T14:21:06;0.30;;;0.20;;
11425;SDS011;5769;47.998;7.788;2023-08-06T14:23:34;0.10;;;0.10;;
11425;SDS011;5769;47.998;7.788;2023-08-06T14:26:01;0.52;;;0.10;;
11425;SDS011;5769;47.998;7.788;2023-08-06T14:28:28;0.10;;;0.10;;
11425;SDS011;5769;47.998;7.788;2023-08-06T14:30:55;0.28;;;0.20;;
11425;SDS011;5769;47.998;7.788;2023-08-06T14:33:22;1.77;;;0.38;;
11425;SDS011;5769;47.998;7.788;2023-08-06T14:35:49;0.15;;;0.03;;
11425;SDS011;5769;47.998;7.788;2023-08-06T14:38:15;0.20;;;0.20;;
11425;SDS011;5769;47.998;7.788;2023-08-06T14:40:44;0.28;;;0.15;;
11425;SDS011;5769;47.998;7.788;2023-08-06T14:43:11;0.90;;;0.10;;
11425;SDS011;5769;47.998;7.788;2023-08-06T14:45:38;0.50;;;0.28;;
11425;SDS011;5769;47.998;7.788;2023-08-06T14:48:05;0.40;;;0.20;;
11425;SDS011;5769;47.998;7.788;2023-08-06T14:50:32;0.63;;;0.10;;
11425;SDS011;5769;47.998;7.788;2023-08-06T14:52:59;0.30;;;0.10;;
11425;SDS011;5769;47.998;7.788;2023-08-06T14:55:27;1.27;;;0.25;;
11425;SDS011;5769;47.998;7.788;2023-08-06T14:57:55;0.20;;;0.10;;
11425;SDS011;5769;47.998;7.788;2023-08-06T15:00:22;0.35;;;0.13;;
11425;SDS011;5769;47.998;7.788;2023-08-06T15:02:49;0.38;;;0.20;;
11425;SDS011;5769;47.998;7.788;2023-08-06T15:05:15;0.30;;;0.15;;